Aviation Digital Data Service (ADDS)

Output produced by METARs form (1323 UTC 24 August 2019)
found at http://www.aviationweather.gov/metar/data/
 
Forecast for: RJTY (YOKOTA (JASDF/US, JP)
Text: TAF RJTY 241300Z 2413/2519 VRB06KT 9999 SCT030 QNH2979INS
Forecast period: 1300 to 2300 UTC 24 August 2019
Forecast type: FROM: standard forecast or significant change
Winds: variable direction winds at 7 MPH (6 knots; 3.1 m/s)
Visibility: 6 or more miles 10+ km)
Ceiling: at least 12,000 feet AGL
Clouds: scattered clouds at 3000 feet AGL
Weather: no significant weather forecast for this period
Text: BECMG 2423/2424 15009KT 9999 BKN050 BKN100 QNH2979INS
Forecast period: 2300 UTC 24 August 2019 to 1900 UTC 25 August 2019
Forecast type: BECOMING: Conditions expected to become as follows by 0000 UTC 25 August 2019
Winds: from the SSE (150 degrees) at 10 MPH (9 knots; 4.6 m/s)
Visibility: 6 or more miles 10+ km)
Ceiling: 5000 feet AGL
Clouds: broken clouds at 5000 feet AGL
broken clouds at 10000 feet AGL
Weather: no significant weather forecast for this period
Text: TEMPO 2509/2515 8000 -SHRA BKN020 TX32/2506Z TN22/2421Z LAST NO AMDS AFT 2413 NEXT 2421
Forecast period: 0900 to 1500 UTC 25 August 2019
Forecast type: TEMPORARY: The following changes expected for less than half the time period
Visibility: 5 miles (8 km)
Ceiling: 2000 feet AGL
Clouds: broken clouds at 2000 feet AGL
Weather: -SHRA  (light rain showers)